sensor_id;sensor_type;location;lat;lon;timestamp;pressure;altitude;pressure_sealevel;temperature
29423;BMP180;16399;51.686;8.684;2023-05-29T00:02:45;100404.00;;;13.40
29423;BMP180;16399;51.686;8.684;2023-05-29T00:05:47;100397.00;;;13.30
29423;BMP180;16399;51.686;8.684;2023-05-29T00:08:50;100406.00;;;13.30
29423;BMP180;16399;51.686;8.684;2023-05-29T00:11:52;100410.00;;;13.20
29423;BMP180;16399;51.686;8.684;2023-05-29T00:14:55;100401.00;;;13.20
29423;BMP180;16399;51.686;8.684;2023-05-29T00:17:57;100410.00;;;13.10
29423;BMP180;16399;51.686;8.684;2023-05-29T00:20:59;100406.00;;;13.10
29423;BMP180;16399;51.686;8.684;2023-05-29T00:24:02;100411.00;;;13.10
29423;BMP180;16399;51.686;8.684;2023-05-29T00:27:04;100409.00;;;13.10
29423;BMP180;16399;51.686;8.684;2023-05-29T00:30:07;100411.00;;;13.00
29423;BMP180;16399;51.686;8.684;2023-05-29T00:33:09;100412.00;;;13.00
29423;BMP180;16399;51.686;8.684;2023-05-29T00:36:12;100412.00;;;13.00
29423;BMP180;16399;51.686;8.684;2023-05-29T00:39:14;100407.00;;;12.90
29423;BMP180;16399;51.686;8.684;2023-05-29T00:42:17;100418.00;;;12.90
29423;BMP180;16399;51.686;8.684;2023-05-29T00:45:19;100417.00;;;12.80
29423;BMP180;16399;51.686;8.684;2023-05-29T00:48:23;100421.00;;;12.80
29423;BMP180;16399;51.686;8.684;2023-05-29T00:51:26;100430.00;;;12.80
29423;BMP180;16399;51.686;8.684;2023-05-29T00:54:30;100418.00;;;12.70
29423;BMP180;16399;51.686;8.684;2023-05-29T00:57:34;100418.00;;;12.60
29423;BMP180;16399;51.686;8.684;2023-05-29T01:00:37;100432.00;;;12.50
29423;BMP180;16399;51.686;8.684;2023-05-29T01:03:41;100427.00;;;12.50
29423;BMP180;16399;51.686;8.684;2023-05-29T01:06:43;100429.00;;;12.40
29423;BMP180;16399;51.686;8.684;2023-05-29T01:09:46;100426.00;;;12.40
29423;BMP180;16399;51.686;8.684;2023-05-29T01:13:06;100444.00;;;12.30
29423;BMP180;16399;51.686;8.684;2023-05-29T01:16:08;100444.00;;;12.30
29423;BMP180;16399;51.686;8.684;2023-05-29T01:29:08;100456.00;;;12.10
29423;BMP180;16399;51.686;8.684;2023-05-29T01:32:12;100465.00;;;12.10
29423;BMP180;16399;51.686;8.684;2023-05-29T01:35:14;100457.00;;;12.00
29423;BMP180;16399;51.686;8.684;2023-05-29T01:38:16;100462.00;;;12.00
29423;BMP180;16399;51.686;8.684;2023-05-29T01:41:21;100469.00;;;12.00
29423;BMP180;16399;51.686;8.684;2023-05-29T01:44:23;100462.00;;;11.90
29423;BMP180;16399;51.686;8.684;2023-05-29T01:47:27;100471.00;;;11.90
29423;BMP180;16399;51.686;8.684;2023-05-29T01:50:29;100470.00;;;11.90
29423;BMP180;16399;51.686;8.684;2023-05-29T01:53:32;100472.00;;;11.90
29423;BMP180;16399;51.686;8.684;2023-05-29T01:56:35;100477.00;;;11.80
29423;BMP180;16399;51.686;8.684;2023-05-29T01:59:38;100478.00;;;11.80
29423;BMP180;16399;51.686;8.684;2023-05-29T02:02:41;100480.00;;;11.70
29423;BMP180;16399;51.686;8.684;2023-05-29T02:05:44;100477.00;;;11.70
29423;BMP180;16399;51.686;8.684;2023-05-29T02:08:47;100478.00;;;11.70
29423;BMP180;16399;51.686;8.684;2023-05-29T02:11:49;100477.00;;;11.60
29423;BMP180;16399;51.686;8.684;2023-05-29T02:14:51;100476.00;;;11.60
29423;BMP180;16399;51.686;8.684;2023-05-29T02:17:53;100484.00;;;11.50
29423;BMP180;16399;51.686;8.684;2023-05-29T02:20:56;100489.00;;;11.50
29423;BMP180;16399;51.686;8.684;2023-05-29T02:23:58;100500.00;;;11.50
29423;BMP180;16399;51.686;8.684;2023-05-29T02:27:01;100496.00;;;11.40
29423;BMP180;16399;51.686;8.684;2023-05-29T02:30:04;100484.00;;;11.40
29423;BMP180;16399;51.686;8.684;2023-05-29T02:33:07;100498.00;;;11.30
29423;BMP180;16399;51.686;8.684;2023-05-29T02:36:09;100494.00;;;11.30
29423;BMP180;16399;51.686;8.684;2023-05-29T02:39:12;100501.00;;;11.20
29423;BMP180;16399;51.686;8.684;2023-05-29T02:42:15;100497.00;;;11.20
29423;BMP180;16399;51.686;8.684;2023-05-29T02:45:17;100485.00;;;11.10
29423;BMP180;16399;51.686;8.684;2023-05-29T02:48:20;100496.00;;;11.10
29423;BMP180;16399;51.686;8.684;2023-05-29T02:51:22;100497.00;;;11.10
29423;BMP180;16399;51.686;8.684;2023-05-29T02:54:24;100495.00;;;11.10
29423;BMP180;16399;51.686;8.684;2023-05-29T02:57:27;100509.00;;;11.00
29423;BMP180;16399;51.686;8.684;2023-05-29T03:00:30;100512.00;;;11.00
29423;BMP180;16399;51.686;8.684;2023-05-29T03:03:32;100513.00;;;11.00
29423;BMP180;16399;51.686;8.684;2023-05-29T03:06:34;100516.00;;;10.90
29423;BMP180;16399;51.686;8.684;2023-05-29T03:09:37;100506.00;;;10.90
29423;BMP180;16399;51.686;8.684;2023-05-29T03:12:39;100503.00;;;10.90
29423;BMP180;16399;51.686;8.684;2023-05-29T03:15:42;100517.00;;;10.80
29423;BMP180;16399;51.686;8.684;2023-05-29T03:18:44;100513.00;;;10.80
29423;BMP180;16399;51.686;8.684;2023-05-29T03:21:46;100508.00;;;10.80
29423;BMP180;16399;51.686;8.684;2023-05-29T03:24:49;100508.00;;;10.80
29423;BMP180;16399;51.686;8.684;2023-05-29T03:27:51;100512.00;;;10.80
29423;BMP180;16399;51.686;8.684;2023-05-29T03:30:53;100516.00;;;10.70
29423;BMP180;16399;51.686;8.684;2023-05-29T03:33:56;100519.00;;;10.70
29423;BMP180;16399;51.686;8.684;2023-05-29T03:36:58;100512.00;;;10.70
29423;BMP180;16399;51.686;8.684;2023-05-29T03:40:00;100515.00;;;10.70
29423;BMP180;16399;51.686;8.684;2023-05-29T03:43:03;100511.00;;;10.70
29423;BMP180;16399;51.686;8.684;2023-05-29T03:46:05;100512.00;;;10.70
29423;BMP180;16399;51.686;8.684;2023-05-29T03:49:07;100514.00;;;10.70
29423;BMP180;16399;51.686;8.684;2023-05-29T03:52:10;100517.00;;;10.80
29423;BMP180;16399;51.686;8.684;2023-05-29T03:55:13;100513.00;;;11.00
29423;BMP180;16399;51.686;8.684;2023-05-29T03:58:15;100517.00;;;11.20
29423;BMP180;16399;51.686;8.684;2023-05-29T04:01:18;100523.00;;;11.60
29423;BMP180;16399;51.686;8.684;2023-05-29T04:04:20;100521.00;;;11.90
29423;BMP180;16399;51.686;8.684;2023-05-29T04:07:22;100526.00;;;12.20
29423;BMP180;16399;51.686;8.684;2023-05-29T04:10:25;100524.00;;;12.50
29423;BMP180;16399;51.686;8.684;2023-05-29T04:13:27;100544.00;;;12.60
29423;BMP180;16399;51.686;8.684;2023-05-29T04:16:30;100535.00;;;12.70
29423;BMP180;16399;51.686;8.684;2023-05-29T04:19:32;100528.00;;;12.80
29423;BMP180;16399;51.686;8.684;2023-05-29T04:22:36;100539.00;;;12.80
29423;BMP180;16399;51.686;8.684;2023-05-29T04:25:38;100542.00;;;12.90
29423;BMP180;16399;51.686;8.684;2023-05-29T04:28:41;100537.00;;;13.00
29423;BMP180;16399;51.686;8.684;2023-05-29T04:31:43;100528.00;;;13.10
29423;BMP180;16399;51.686;8.684;2023-05-29T04:34:46;100534.00;;;13.20
29423;BMP180;16399;51.686;8.684;2023-05-29T04:37:49;100530.00;;;13.30
29423;BMP180;16399;51.686;8.684;2023-05-29T04:40:51;100529.00;;;13.50
29423;BMP180;16399;51.686;8.684;2023-05-29T04:43:56;100533.00;;;13.60
29423;BMP180;16399;51.686;8.684;2023-05-29T04:46:58;100536.00;;;13.80
29423;BMP180;16399;51.686;8.684;2023-05-29T04:50:03;100538.00;;;13.90
29423;BMP180;16399;51.686;8.684;2023-05-29T04:53:05;100542.00;;;14.00
29423;BMP180;16399;51.686;8.684;2023-05-29T04:56:08;100540.00;;;14.30
29423;BMP180;16399;51.686;8.684;2023-05-29T04:59:11;100544.00;;;14.70
29423;BMP180;16399;51.686;8.684;2023-05-29T05:02:13;100534.00;;;15.10
29423;BMP180;16399;51.686;8.684;2023-05-29T05:05:15;100537.00;;;15.70
29423;BMP180;16399;51.686;8.684;2023-05-29T05:08:18;100547.00;;;16.20
29423;BMP180;16399;51.686;8.684;2023-05-29T05:11:21;100546.00;;;16.60
29423;BMP180;16399;51.686;8.684;2023-05-29T05:14:24;100552.00;;;17.00
29423;BMP180;16399;51.686;8.684;2023-05-29T05:17:26;100549.00;;;17.30
29423;BMP180;16399;51.686;8.684;2023-05-29T05:20:28;100553.00;;;17.60
29423;BMP180;16399;51.686;8.684;2023-05-29T05:23:32;100546.00;;;18.00
29423;BMP180;16399;51.686;8.684;2023-05-29T05:26:34;100547.00;;;18.10
29423;BMP180;16399;51.686;8.684;2023-05-29T05:29:36;100551.00;;;17.90
29423;BMP180;16399;51.686;8.684;2023-05-29T05:32:39;100543.00;;;17.30
29423;BMP180;16399;51.686;8.684;2023-05-29T05:35:41;100544.00;;;16.70
29423;BMP180;16399;51.686;8.684;2023-05-29T05:38:44;100558.00;;;16.20
29423;BMP180;16399;51.686;8.684;2023-05-29T05:41:46;100549.00;;;15.70
29423;BMP180;16399;51.686;8.684;2023-05-29T05:44:49;100556.00;;;15.30
29423;BMP180;16399;51.686;8.684;2023-05-29T05:47:51;100568.00;;;15.10
29423;BMP180;16399;51.686;8.684;2023-05-29T05:50:53;100564.00;;;15.00
29423;BMP180;16399;51.686;8.684;2023-05-29T05:53:56;100560.00;;;15.20
29423;BMP180;16399;51.686;8.684;2023-05-29T05:56:58;100569.00;;;15.20
29423;BMP180;16399;51.686;8.684;2023-05-29T06:00:03;100571.00;;;15.20
29423;BMP180;16399;51.686;8.684;2023-05-29T06:03:13;100563.00;;;15.20
29423;BMP180;16399;51.686;8.684;2023-05-29T06:06:15;100563.00;;;15.10
29423;BMP180;16399;51.686;8.684;2023-05-29T06:09:19;100569.00;;;15.10
29423;BMP180;16399;51.686;8.684;2023-05-29T06:12:21;100576.00;;;15.00
29423;BMP180;16399;51.686;8.684;2023-05-29T06:15:23;100587.00;;;14.90
29423;BMP180;16399;51.686;8.684;2023-05-29T06:18:26;100587.00;;;14.80
29423;BMP180;16399;51.686;8.684;2023-05-29T06:21:28;100583.00;;;14.80
29423;BMP180;16399;51.686;8.684;2023-05-29T06:24:30;100596.00;;;14.90
29423;BMP180;16399;51.686;8.684;2023-05-29T06:27:33;100590.00;;;15.00
29423;BMP180;16399;51.686;8.684;2023-05-29T06:30:35;100597.00;;;15.10
29423;BMP180;16399;51.686;8.684;2023-05-29T06:33:37;100582.00;;;15.20
29423;BMP180;16399;51.686;8.684;2023-05-29T06:36:39;100588.00;;;15.30
29423;BMP180;16399;51.686;8.684;2023-05-29T06:39:46;100577.00;;;15.20
29423;BMP180;16399;51.686;8.684;2023-05-29T06:42:48;100580.00;;;15.20
29423;BMP180;16399;51.686;8.684;2023-05-29T06:45:51;100574.00;;;15.30
29423;BMP180;16399;51.686;8.684;2023-05-29T06:48:53;100586.00;;;15.40
29423;BMP180;16399;51.686;8.684;2023-05-29T06:51:56;100583.00;;;15.40
29423;BMP180;16399;51.686;8.684;2023-05-29T06:54:58;100580.00;;;15.50
29423;BMP180;16399;51.686;8.684;2023-05-29T06:58:00;100571.00;;;15.60
29423;BMP180;16399;51.686;8.684;2023-05-29T07:01:02;100571.00;;;15.70
29423;BMP180;16399;51.686;8.684;2023-05-29T07:04:05;100579.00;;;15.80
29423;BMP180;16399;51.686;8.684;2023-05-29T07:07:08;100579.00;;;15.80
29423;BMP180;16399;51.686;8.684;2023-05-29T07:10:10;100579.00;;;15.70
29423;BMP180;16399;51.686;8.684;2023-05-29T07:13:16;100593.00;;;15.80
29423;BMP180;16399;51.686;8.684;2023-05-29T07:16:19;100609.00;;;15.80
29423;BMP180;16399;51.686;8.684;2023-05-29T07:19:21;100596.00;;;15.80
29423;BMP180;16399;51.686;8.684;2023-05-29T07:22:24;100602.00;;;15.90
29423;BMP180;16399;51.686;8.684;2023-05-29T07:25:26;100607.00;;;16.00
29423;BMP180;16399;51.686;8.684;2023-05-29T07:28:28;100607.00;;;16.10
29423;BMP180;16399;51.686;8.684;2023-05-29T07:31:30;100612.00;;;16.20
29423;BMP180;16399;51.686;8.684;2023-05-29T07:34:33;100623.00;;;16.30
29423;BMP180;16399;51.686;8.684;2023-05-29T07:37:35;100613.00;;;16.40
29423;BMP180;16399;51.686;8.684;2023-05-29T07:40:37;100620.00;;;16.40
29423;BMP180;16399;51.686;8.684;2023-05-29T07:43:40;100620.00;;;16.50
29423;BMP180;16399;51.686;8.684;2023-05-29T07:46:42;100627.00;;;16.50
29423;BMP180;16399;51.686;8.684;2023-05-29T07:49:44;100609.00;;;16.60
29423;BMP180;16399;51.686;8.684;2023-05-29T07:52:47;100615.00;;;16.70
29423;BMP180;16399;51.686;8.684;2023-05-29T07:55:49;100614.00;;;16.80
29423;BMP180;16399;51.686;8.684;2023-05-29T07:58:51;100608.00;;;16.90
29423;BMP180;16399;51.686;8.684;2023-05-29T08:01:55;100602.00;;;17.10
29423;BMP180;16399;51.686;8.684;2023-05-29T08:05:03;100606.00;;;17.30
29423;BMP180;16399;51.686;8.684;2023-05-29T08:08:05;100604.00;;;17.40
29423;BMP180;16399;51.686;8.684;2023-05-29T08:11:08;100610.00;;;17.50
29423;BMP180;16399;51.686;8.684;2023-05-29T08:14:11;100601.00;;;17.80
29423;BMP180;16399;51.686;8.684;2023-05-29T08:17:13;100597.00;;;18.00
29423;BMP180;16399;51.686;8.684;2023-05-29T08:20:15;100598.00;;;18.40
29423;BMP180;16399;51.686;8.684;2023-05-29T08:23:18;100594.00;;;18.80
29423;BMP180;16399;51.686;8.684;2023-05-29T08:26:20;100587.00;;;19.00
29423;BMP180;16399;51.686;8.684;2023-05-29T08:29:23;100587.00;;;19.20
29423;BMP180;16399;51.686;8.684;2023-05-29T08:32:25;100580.00;;;19.40
29423;BMP180;16399;51.686;8.684;2023-05-29T08:35:27;100595.00;;;19.40
29423;BMP180;16399;51.686;8.684;2023-05-29T08:38:29;100591.00;;;19.90
29423;BMP180;16399;51.686;8.684;2023-05-29T08:44:46;100593.00;;;20.10
29423;BMP180;16399;51.686;8.684;2023-05-29T08:47:52;100587.00;;;20.20
29423;BMP180;16399;51.686;8.684;2023-05-29T08:50:57;100590.00;;;20.30
29423;BMP180;16399;51.686;8.684;2023-05-29T08:53:59;100587.00;;;20.10
29423;BMP180;16399;51.686;8.684;2023-05-29T08:57:02;100592.00;;;20.00
29423;BMP180;16399;51.686;8.684;2023-05-29T09:00:05;100597.00;;;20.00
29423;BMP180;16399;51.686;8.684;2023-05-29T09:03:12;100602.00;;;19.90
29423;BMP180;16399;51.686;8.684;2023-05-29T09:06:14;100605.00;;;19.80
29423;BMP180;16399;51.686;8.684;2023-05-29T09:09:19;100605.00;;;19.70
29423;BMP180;16399;51.686;8.684;2023-05-29T09:12:21;100605.00;;;19.80
29423;BMP180;16399;51.686;8.684;2023-05-29T09:15:24;100601.00;;;19.90
29423;BMP180;16399;51.686;8.684;2023-05-29T09:18:31;100613.00;;;20.00
29423;BMP180;16399;51.686;8.684;2023-05-29T09:21:33;100614.00;;;20.10
29423;BMP180;16399;51.686;8.684;2023-05-29T09:24:39;100606.00;;;20.40
29423;BMP180;16399;51.686;8.684;2023-05-29T09:27:40;100604.00;;;20.40
29423;BMP180;16399;51.686;8.684;2023-05-29T09:30:44;100606.00;;;20.70
29423;BMP180;16399;51.686;8.684;2023-05-29T09:33:50;100610.00;;;20.80
29423;BMP180;16399;51.686;8.684;2023-05-29T09:36:53;100615.00;;;20.80
29423;BMP180;16399;51.686;8.684;2023-05-29T09:39:55;100617.00;;;20.90
29423;BMP180;16399;51.686;8.684;2023-05-29T09:43:12;100620.00;;;20.80
29423;BMP180;16399;51.686;8.684;2023-05-29T09:46:16;100623.00;;;20.60
29423;BMP180;16399;51.686;8.684;2023-05-29T09:49:18;100611.00;;;20.70
29423;BMP180;16399;51.686;8.684;2023-05-29T09:52:22;100609.00;;;20.80
29423;BMP180;16399;51.686;8.684;2023-05-29T09:55:25;100598.00;;;20.90
29423;BMP180;16399;51.686;8.684;2023-05-29T09:58:30;100601.00;;;21.10
29423;BMP180;16399;51.686;8.684;2023-05-29T10:01:34;100602.00;;;21.20
29423;BMP180;16399;51.686;8.684;2023-05-29T10:04:37;100599.00;;;21.20
29423;BMP180;16399;51.686;8.684;2023-05-29T10:07:46;100605.00;;;21.30
29423;BMP180;16399;51.686;8.684;2023-05-29T10:10:59;100613.00;;;21.20
29423;BMP180;16399;51.686;8.684;2023-05-29T10:13:57;100606.00;;;21.00
29423;BMP180;16399;51.686;8.684;2023-05-29T10:17:02;100616.00;;;20.90
29423;BMP180;16399;51.686;8.684;2023-05-29T10:20:06;100606.00;;;20.90
29423;BMP180;16399;51.686;8.684;2023-05-29T10:23:10;100607.00;;;21.00
29423;BMP180;16399;51.686;8.684;2023-05-29T10:26:15;100610.00;;;20.80
29423;BMP180;16399;51.686;8.684;2023-05-29T10:29:28;100605.00;;;20.70
29423;BMP180;16399;51.686;8.684;2023-05-29T10:36:00;100603.00;;;21.30
29423;BMP180;16399;51.686;8.684;2023-05-29T10:38:59;100602.00;;;21.60
29423;BMP180;16399;51.686;8.684;2023-05-29T10:42:01;100596.00;;;21.80
29423;BMP180;16399;51.686;8.684;2023-05-29T10:45:04;100591.00;;;21.90
29423;BMP180;16399;51.686;8.684;2023-05-29T10:51:26;100594.00;;;22.00
29423;BMP180;16399;51.686;8.684;2023-05-29T10:54:30;100594.00;;;21.90
29423;BMP180;16399;51.686;8.684;2023-05-29T10:57:34;100588.00;;;21.80
29423;BMP180;16399;51.686;8.684;2023-05-29T11:00:41;100596.00;;;21.70
29423;BMP180;16399;51.686;8.684;2023-05-29T11:03:44;100599.00;;;21.70
29423;BMP180;16399;51.686;8.684;2023-05-29T11:06:47;100596.00;;;21.70
29423;BMP180;16399;51.686;8.684;2023-05-29T11:09:49;100596.00;;;21.40
29423;BMP180;16399;51.686;8.684;2023-05-29T11:12:58;100595.00;;;21.20
29423;BMP180;16399;51.686;8.684;2023-05-29T11:16:20;100594.00;;;21.00
29423;BMP180;16399;51.686;8.684;2023-05-29T11:19:18;100598.00;;;20.80
29423;BMP180;16399;51.686;8.684;2023-05-29T11:22:41;100589.00;;;20.70
29423;BMP180;16399;51.686;8.684;2023-05-29T11:25:27;100594.00;;;20.60
29423;BMP180;16399;51.686;8.684;2023-05-29T11:28:30;100598.00;;;20.50
29423;BMP180;16399;51.686;8.684;2023-05-29T11:31:34;100598.00;;;20.40
29423;BMP180;16399;51.686;8.684;2023-05-29T11:34:40;100597.00;;;20.50
29423;BMP180;16399;51.686;8.684;2023-05-29T11:37:44;100588.00;;;20.50
29423;BMP180;16399;51.686;8.684;2023-05-29T11:40:48;100596.00;;;20.40
29423;BMP180;16399;51.686;8.684;2023-05-29T11:44:04;100587.00;;;20.30
29423;BMP180;16399;51.686;8.684;2023-05-29T11:47:09;100582.00;;;20.20
29423;BMP180;16399;51.686;8.684;2023-05-29T11:50:36;100586.00;;;20.20
29423;BMP180;16399;51.686;8.684;2023-05-29T11:53:18;100594.00;;;20.30
29423;BMP180;16399;51.686;8.684;2023-05-29T11:56:21;100583.00;;;20.40
29423;BMP180;16399;51.686;8.684;2023-05-29T11:59:23;100593.00;;;20.40
29423;BMP180;16399;51.686;8.684;2023-05-29T12:02:25;100595.00;;;20.50
29423;BMP180;16399;51.686;8.684;2023-05-29T12:05:29;100587.00;;;20.50
29423;BMP180;16399;51.686;8.684;2023-05-29T12:08:32;100587.00;;;20.50
29423;BMP180;16399;51.686;8.684;2023-05-29T12:11:35;100590.00;;;20.40
29423;BMP180;16399;51.686;8.684;2023-05-29T12:14:37;100581.00;;;20.50
29423;BMP180;16399;51.686;8.684;2023-05-29T12:17:41;100582.00;;;20.50
29423;BMP180;16399;51.686;8.684;2023-05-29T12:20:43;100588.00;;;20.50
29423;BMP180;16399;51.686;8.684;2023-05-29T12:23:46;100583.00;;;20.50
29423;BMP180;16399;51.686;8.684;2023-05-29T12:26:48;100586.00;;;20.50
29423;BMP180;16399;51.686;8.684;2023-05-29T12:29:58;100578.00;;;20.50
29423;BMP180;16399;51.686;8.684;2023-05-29T12:32:54;100591.00;;;20.50
29423;BMP180;16399;51.686;8.684;2023-05-29T12:36:04;100589.00;;;20.60
29423;BMP180;16399;51.686;8.684;2023-05-29T12:39:07;100581.00;;;20.60
29423;BMP180;16399;51.686;8.684;2023-05-29T12:42:11;100578.00;;;20.50
29423;BMP180;16399;51.686;8.684;2023-05-29T12:45:17;100570.00;;;20.60
29423;BMP180;16399;51.686;8.684;2023-05-29T12:48:19;100582.00;;;20.60
29423;BMP180;16399;51.686;8.684;2023-05-29T12:51:25;100576.00;;;20.50
29423;BMP180;16399;51.686;8.684;2023-05-29T12:54:28;100579.00;;;20.60
29423;BMP180;16399;51.686;8.684;2023-05-29T12:57:30;100572.00;;;20.50
29423;BMP180;16399;51.686;8.684;2023-05-29T13:00:35;100569.00;;;20.40
29423;BMP180;16399;51.686;8.684;2023-05-29T13:03:37;100578.00;;;20.40
29423;BMP180;16399;51.686;8.684;2023-05-29T13:06:39;100573.00;;;20.50
29423;BMP180;16399;51.686;8.684;2023-05-29T13:09:41;100572.00;;;20.50
29423;BMP180;16399;51.686;8.684;2023-05-29T13:12:44;100574.00;;;20.50
29423;BMP180;16399;51.686;8.684;2023-05-29T13:15:47;100567.00;;;20.50
29423;BMP180;16399;51.686;8.684;2023-05-29T13:18:49;100571.00;;;20.50
29423;BMP180;16399;51.686;8.684;2023-05-29T13:21:51;100573.00;;;20.40
29423;BMP180;16399;51.686;8.684;2023-05-29T13:24:54;100576.00;;;20.50
29423;BMP180;16399;51.686;8.684;2023-05-29T13:27:56;100573.00;;;20.50
29423;BMP180;16399;51.686;8.684;2023-05-29T13:30:58;100569.00;;;20.60
29423;BMP180;16399;51.686;8.684;2023-05-29T13:34:01;100578.00;;;20.60
29423;BMP180;16399;51.686;8.684;2023-05-29T13:37:03;100573.00;;;20.60
29423;BMP180;16399;51.686;8.684;2023-05-29T13:40:06;100569.00;;;20.60
29423;BMP180;16399;51.686;8.684;2023-05-29T13:43:10;100574.00;;;20.60
29423;BMP180;16399;51.686;8.684;2023-05-29T13:46:13;100571.00;;;20.60
29423;BMP180;16399;51.686;8.684;2023-05-29T13:49:15;100571.00;;;20.70
29423;BMP180;16399;51.686;8.684;2023-05-29T13:52:17;100564.00;;;20.70
29423;BMP180;16399;51.686;8.684;2023-05-29T13:55:19;100570.00;;;20.70
29423;BMP180;16399;51.686;8.684;2023-05-29T13:58:22;100561.00;;;20.70
29423;BMP180;16399;51.686;8.684;2023-05-29T14:01:24;100563.00;;;20.60
29423;BMP180;16399;51.686;8.684;2023-05-29T14:04:28;100561.00;;;20.60
29423;BMP180;16399;51.686;8.684;2023-05-29T14:07:30;100557.00;;;20.50
29423;BMP180;16399;51.686;8.684;2023-05-29T14:10:33;100555.00;;;20.60
29423;BMP180;16399;51.686;8.684;2023-05-29T14:13:35;100558.00;;;20.60
29423;BMP180;16399;51.686;8.684;2023-05-29T14:16:37;100553.00;;;20.70
29423;BMP180;16399;51.686;8.684;2023-05-29T14:19:39;100550.00;;;20.70
29423;BMP180;16399;51.686;8.684;2023-05-29T14:22:42;100561.00;;;20.70
29423;BMP180;16399;51.686;8.684;2023-05-29T14:25:44;100571.00;;;20.70
29423;BMP180;16399;51.686;8.684;2023-05-29T14:28:46;100556.00;;;20.70
29423;BMP180;16399;51.686;8.684;2023-05-29T14:31:49;100557.00;;;20.70
29423;BMP180;16399;51.686;8.684;2023-05-29T14:34:51;100558.00;;;20.70
29423;BMP180;16399;51.686;8.684;2023-05-29T14:37:53;100565.00;;;20.70
29423;BMP180;16399;51.686;8.684;2023-05-29T14:40:56;100560.00;;;20.80
29423;BMP180;16399;51.686;8.684;2023-05-29T14:43:58;100565.00;;;20.80
29423;BMP180;16399;51.686;8.684;2023-05-29T14:47:01;100570.00;;;20.80
29423;BMP180;16399;51.686;8.684;2023-05-29T14:50:03;100562.00;;;20.70
29423;BMP180;16399;51.686;8.684;2023-05-29T14:53:06;100572.00;;;20.70
29423;BMP180;16399;51.686;8.684;2023-05-29T14:56:08;100570.00;;;20.70
29423;BMP180;16399;51.686;8.684;2023-05-29T14:59:10;100564.00;;;20.70
29423;BMP180;16399;51.686;8.684;2023-05-29T15:02:13;100564.00;;;20.70
29423;BMP180;16399;51.686;8.684;2023-05-29T15:05:15;100564.00;;;20.70
29423;BMP180;16399;51.686;8.684;2023-05-29T15:08:19;100562.00;;;20.70
29423;BMP180;16399;51.686;8.684;2023-05-29T15:11:21;100564.00;;;20.70
29423;BMP180;16399;51.686;8.684;2023-05-29T15:14:24;100560.00;;;20.60
29423;BMP180;16399;51.686;8.684;2023-05-29T15:17:26;100558.00;;;20.60
29423;BMP180;16399;51.686;8.684;2023-05-29T15:20:28;100551.00;;;20.60
29423;BMP180;16399;51.686;8.684;2023-05-29T15:23:30;100558.00;;;20.50
29423;BMP180;16399;51.686;8.684;2023-05-29T15:26:34;100554.00;;;20.50
29423;BMP180;16399;51.686;8.684;2023-05-29T15:29:41;100554.00;;;20.50
29423;BMP180;16399;51.686;8.684;2023-05-29T15:32:42;100563.00;;;20.60
29423;BMP180;16399;51.686;8.684;2023-05-29T15:35:45;100557.00;;;20.60
29423;BMP180;16399;51.686;8.684;2023-05-29T15:38:48;100553.00;;;20.50
29423;BMP180;16399;51.686;8.684;2023-05-29T15:41:50;100563.00;;;20.60
29423;BMP180;16399;51.686;8.684;2023-05-29T15:44:52;100558.00;;;20.60
29423;BMP180;16399;51.686;8.684;2023-05-29T15:47:54;100551.00;;;20.60
29423;BMP180;16399;51.686;8.684;2023-05-29T15:50:57;100553.00;;;20.60
29423;BMP180;16399;51.686;8.684;2023-05-29T15:53:59;100560.00;;;20.50
29423;BMP180;16399;51.686;8.684;2023-05-29T15:57:01;100556.00;;;20.50
29423;BMP180;16399;51.686;8.684;2023-05-29T16:00:04;100551.00;;;20.40
29423;BMP180;16399;51.686;8.684;2023-05-29T16:03:06;100542.00;;;20.30
29423;BMP180;16399;51.686;8.684;2023-05-29T16:06:09;100549.00;;;20.20
29423;BMP180;16399;51.686;8.684;2023-05-29T16:09:11;100550.00;;;20.10
29423;BMP180;16399;51.686;8.684;2023-05-29T16:12:14;100549.00;;;20.10
29423;BMP180;16399;51.686;8.684;2023-05-29T16:15:17;100543.00;;;20.10
29423;BMP180;16399;51.686;8.684;2023-05-29T16:18:20;100540.00;;;20.10
29423;BMP180;16399;51.686;8.684;2023-05-29T16:21:22;100536.00;;;20.10
29423;BMP180;16399;51.686;8.684;2023-05-29T16:24:25;100542.00;;;20.10
29423;BMP180;16399;51.686;8.684;2023-05-29T16:27:28;100550.00;;;20.10
29423;BMP180;16399;51.686;8.684;2023-05-29T16:30:30;100544.00;;;20.10
29423;BMP180;16399;51.686;8.684;2023-05-29T16:33:32;100554.00;;;20.00
29423;BMP180;16399;51.686;8.684;2023-05-29T16:36:35;100547.00;;;20.00
29423;BMP180;16399;51.686;8.684;2023-05-29T16:39:38;100545.00;;;20.00
29423;BMP180;16399;51.686;8.684;2023-05-29T16:42:40;100554.00;;;19.90
29423;BMP180;16399;51.686;8.684;2023-05-29T16:45:43;100553.00;;;19.90
29423;BMP180;16399;51.686;8.684;2023-05-29T16:48:45;100550.00;;;19.90
29423;BMP180;16399;51.686;8.684;2023-05-29T16:51:48;100563.00;;;19.80
29423;BMP180;16399;51.686;8.684;2023-05-29T16:54:50;100557.00;;;19.80
29423;BMP180;16399;51.686;8.684;2023-05-29T16:57:52;100562.00;;;19.70
29423;BMP180;16399;51.686;8.684;2023-05-29T17:00:55;100569.00;;;19.60
29423;BMP180;16399;51.686;8.684;2023-05-29T17:03:57;100563.00;;;19.60
29423;BMP180;16399;51.686;8.684;2023-05-29T17:07:00;100561.00;;;19.50
29423;BMP180;16399;51.686;8.684;2023-05-29T17:10:02;100571.00;;;19.40
29423;BMP180;16399;51.686;8.684;2023-05-29T17:13:04;100571.00;;;19.30
29423;BMP180;16399;51.686;8.684;2023-05-29T17:16:07;100567.00;;;19.20
29423;BMP180;16399;51.686;8.684;2023-05-29T17:19:09;100578.00;;;19.10
29423;BMP180;16399;51.686;8.684;2023-05-29T17:22:11;100568.00;;;19.00
29423;BMP180;16399;51.686;8.684;2023-05-29T17:25:14;100583.00;;;18.90
29423;BMP180;16399;51.686;8.684;2023-05-29T17:28:16;100582.00;;;18.90
29423;BMP180;16399;51.686;8.684;2023-05-29T17:31:18;100583.00;;;18.80
29423;BMP180;16399;51.686;8.684;2023-05-29T17:34:21;100588.00;;;18.80
29423;BMP180;16399;51.686;8.684;2023-05-29T17:37:23;100588.00;;;18.70
29423;BMP180;16399;51.686;8.684;2023-05-29T17:40:26;100582.00;;;18.70